sensor_id;sensor_type;location;lat;lon;timestamp;pressure;altitude;pressure_sealevel;temperature;humidity
21826;BME280;11075;47.944;11.776;2022-12-08T00:01:20;94207.84;;;6.11;25.58
21826;BME280;11075;47.944;11.776;2022-12-08T00:03:47;94209.72;;;7.49;24.27
21826;BME280;11075;47.944;11.776;2022-12-08T00:06:25;94213.31;;;7.86;23.88
21826;BME280;11075;47.944;11.776;2022-12-08T00:09:25;94213.16;;;6.87;25.07
21826;BME280;11075;47.944;11.776;2022-12-08T00:14:34;94214.66;;;7.59;23.85
21826;BME280;11075;47.944;11.776;2022-12-08T00:17:02;94217.22;;;7.88;23.78
21826;BME280;11075;47.944;11.776;2022-12-08T00:19:30;94215.63;;;8.08;23.25
21826;BME280;11075;47.944;11.776;2022-12-08T00:21:58;94220.00;;;8.13;23.25
21826;BME280;11075;47.944;11.776;2022-12-08T00:24:30;94220.38;;;8.48;23.14
21826;BME280;11075;47.944;11.776;2022-12-08T00:26:59;94215.78;;;8.36;23.10
21826;BME280;11075;47.944;11.776;2022-12-08T00:29:26;94219.91;;;8.46;22.93
21826;BME280;11075;47.944;11.776;2022-12-08T00:31:53;94216.34;;;8.42;23.12
21826;BME280;11075;47.944;11.776;2022-12-08T00:34:19;94203.94;;;6.96;24.84
21826;BME280;11075;47.944;11.776;2022-12-08T00:36:47;94199.06;;;7.40;24.30
21826;BME280;11075;47.944;11.776;2022-12-08T00:39:15;94198.59;;;6.96;24.96
21826;BME280;11075;47.944;11.776;2022-12-08T00:41:43;94183.03;;;6.40;25.88
21826;BME280;11075;47.944;11.776;2022-12-08T00:44:29;94176.19;;;4.14;28.51
21826;BME280;11075;47.944;11.776;2022-12-08T00:46:55;94165.06;;;4.86;27.77
21826;BME280;11075;47.944;11.776;2022-12-08T00:49:22;94184.69;;;7.78;24.13
21826;BME280;11075;47.944;11.776;2022-12-08T00:51:49;94189.13;;;7.41;24.40
21826;BME280;11075;47.944;11.776;2022-12-08T00:54:17;94194.59;;;7.65;24.09
21826;BME280;11075;47.944;11.776;2022-12-08T00:56:44;94184.63;;;6.61;25.28
21826;BME280;11075;47.944;11.776;2022-12-08T00:59:13;94197.63;;;7.76;24.13
21826;BME280;11075;47.944;11.776;2022-12-08T01:01:39;94183.19;;;7.68;24.06
21826;BME280;11075;47.944;11.776;2022-12-08T01:04:09;94195.97;;;7.50;24.34
21826;BME280;11075;47.944;11.776;2022-12-08T01:06:38;94186.19;;;6.33;25.35
21826;BME280;11075;47.944;11.776;2022-12-08T01:09:06;94176.38;;;5.09;26.96
21826;BME280;11075;47.944;11.776;2022-12-08T01:11:34;94167.25;;;6.09;26.22
21826;BME280;11075;47.944;11.776;2022-12-08T01:14:02;94187.16;;;7.83;23.91
21826;BME280;11075;47.944;11.776;2022-12-08T01:16:32;94185.19;;;6.76;25.00
21826;BME280;11075;47.944;11.776;2022-12-08T01:19:00;94190.38;;;5.06;25.96
21826;BME280;11075;47.944;11.776;2022-12-08T01:21:27;94174.47;;;6.76;25.02
21826;BME280;11075;47.944;11.776;2022-12-08T01:23:54;94179.38;;;6.94;24.54
21826;BME280;11075;47.944;11.776;2022-12-08T01:26:21;94178.19;;;7.79;23.74
21826;BME280;11075;47.944;11.776;2022-12-08T01:28:48;94187.38;;;7.90;23.50
21826;BME280;11075;47.944;11.776;2022-12-08T01:31:19;94184.66;;;8.11;23.38
21826;BME280;11075;47.944;11.776;2022-12-08T01:33:47;94169.94;;;6.38;24.98
21826;BME280;11075;47.944;11.776;2022-12-08T01:36:23;94161.25;;;6.50;25.28
21826;BME280;11075;47.944;11.776;2022-12-08T01:38:51;94177.75;;;8.34;23.36
21826;BME280;11075;47.944;11.776;2022-12-08T01:41:20;94179.66;;;7.76;23.79
21826;BME280;11075;47.944;11.776;2022-12-08T01:46:51;94182.91;;;8.51;22.83
21826;BME280;11075;47.944;11.776;2022-12-08T01:49:29;94181.31;;;8.75;22.51
21826;BME280;11075;47.944;11.776;2022-12-08T01:52:22;94187.81;;;8.74;22.48
21826;BME280;11075;47.944;11.776;2022-12-08T01:55:03;94174.31;;;7.88;23.62
21826;BME280;11075;47.944;11.776;2022-12-08T01:57:53;94176.06;;;8.54;22.66
21826;BME280;11075;47.944;11.776;2022-12-08T02:00:21;94177.63;;;8.18;22.88
21826;BME280;11075;47.944;11.776;2022-12-08T02:02:53;94178.41;;;8.55;22.49
21826;BME280;11075;47.944;11.776;2022-12-08T02:05:28;94164.47;;;6.64;24.86
21826;BME280;11075;47.944;11.776;2022-12-08T02:07:57;94152.41;;;6.79;24.88
21826;BME280;11075;47.944;11.776;2022-12-08T02:10:27;94150.75;;;6.66;24.71
21826;BME280;11075;47.944;11.776;2022-12-08T02:12:55;94164.44;;;7.68;23.94
21826;BME280;11075;47.944;11.776;2022-12-08T02:31:48;94161.06;;;8.53;22.91
21826;BME280;11075;47.944;11.776;2022-12-08T02:37:16;94149.75;;;8.84;22.43
21826;BME280;11075;47.944;11.776;2022-12-08T02:40:02;94145.44;;;9.07;22.05
21826;BME280;11075;47.944;11.776;2022-12-08T02:43:11;94139.31;;;7.40;24.04
21826;BME280;11075;47.944;11.776;2022-12-08T02:46:00;94151.31;;;8.00;23.33
21826;BME280;11075;47.944;11.776;2022-12-08T02:48:28;94134.69;;;8.31;23.14
21826;BME280;11075;47.944;11.776;2022-12-08T02:50:55;94142.50;;;8.11;23.24
21826;BME280;11075;47.944;11.776;2022-12-08T02:53:22;94135.75;;;7.81;23.86
21826;BME280;11075;47.944;11.776;2022-12-08T02:55:58;94136.22;;;7.50;23.57
21826;BME280;11075;47.944;11.776;2022-12-08T03:10:10;94107.13;;;7.73;23.76
21826;BME280;11075;47.944;11.776;2022-12-08T03:12:54;94101.69;;;7.15;24.11
21826;BME280;11075;47.944;11.776;2022-12-08T03:15:23;94101.13;;;7.43;24.36
21826;BME280;11075;47.944;11.776;2022-12-08T03:17:54;94102.63;;;7.52;23.84
21826;BME280;11075;47.944;11.776;2022-12-08T03:20:24;94105.19;;;8.18;23.43
21826;BME280;11075;47.944;11.776;2022-12-08T03:22:53;94098.81;;;7.20;24.25
21826;BME280;11075;47.944;11.776;2022-12-08T03:25:24;94115.22;;;8.34;23.13
21826;BME280;11075;47.944;11.776;2022-12-08T03:27:52;94105.19;;;7.49;23.70
21826;BME280;11075;47.944;11.776;2022-12-08T03:30:19;94089.66;;;6.38;25.46
21826;BME280;11075;47.944;11.776;2022-12-08T03:33:01;94103.50;;;8.14;23.33
21826;BME280;11075;47.944;11.776;2022-12-08T03:35:32;94104.69;;;7.92;23.62
21826;BME280;11075;47.944;11.776;2022-12-08T03:38:08;94107.16;;;8.58;22.93
21826;BME280;11075;47.944;11.776;2022-12-08T03:40:36;94109.53;;;8.35;23.07
21826;BME280;11075;47.944;11.776;2022-12-08T03:43:04;94103.38;;;8.10;23.21
21826;BME280;11075;47.944;11.776;2022-12-08T03:45:32;94107.28;;;7.43;23.96
21826;BME280;11075;47.944;11.776;2022-12-08T03:48:00;94081.59;;;6.88;24.70
21826;BME280;11075;47.944;11.776;2022-12-08T03:50:27;94092.69;;;7.53;24.20
21826;BME280;11075;47.944;11.776;2022-12-08T03:52:54;94088.88;;;7.54;24.12
21826;BME280;11075;47.944;11.776;2022-12-08T03:55:20;94091.19;;;8.13;23.37
21826;BME280;11075;47.944;11.776;2022-12-08T03:57:48;94096.81;;;8.84;22.66
21826;BME280;11075;47.944;11.776;2022-12-08T04:00:15;94088.03;;;7.86;23.80
21826;BME280;11075;47.944;11.776;2022-12-08T04:02:42;94092.03;;;7.68;23.45
21826;BME280;11075;47.944;11.776;2022-12-08T04:05:09;94092.28;;;8.00;23.37
21826;BME280;11075;47.944;11.776;2022-12-08T04:07:36;94094.56;;;8.22;23.22
21826;BME280;11075;47.944;11.776;2022-12-08T04:10:04;94073.66;;;6.80;25.07
21826;BME280;11075;47.944;11.776;2022-12-08T04:12:31;94084.41;;;7.58;23.91
21826;BME280;11075;47.944;11.776;2022-12-08T04:14:58;94081.34;;;7.92;23.62
21826;BME280;11075;47.944;11.776;2022-12-08T04:17:25;94077.34;;;8.11;23.49
21826;BME280;11075;47.944;11.776;2022-12-08T04:19:52;94076.56;;;7.41;23.71
21826;BME280;11075;47.944;11.776;2022-12-08T04:22:18;94089.63;;;8.36;22.92
21826;BME280;11075;47.944;11.776;2022-12-08T04:24:46;94080.09;;;7.78;23.64
21826;BME280;11075;47.944;11.776;2022-12-08T04:27:13;94079.06;;;7.58;23.46
21826;BME280;11075;47.944;11.776;2022-12-08T04:29:40;94076.78;;;8.05;23.26
21826;BME280;11075;47.944;11.776;2022-12-08T04:32:07;94078.63;;;7.56;23.71
21826;BME280;11075;47.944;11.776;2022-12-08T04:34:33;94070.22;;;7.57;23.90
21826;BME280;11075;47.944;11.776;2022-12-08T04:37:01;94083.38;;;8.08;23.06
21826;BME280;11075;47.944;11.776;2022-12-08T04:39:28;94076.41;;;7.95;23.33
21826;BME280;11075;47.944;11.776;2022-12-08T04:41:55;94075.75;;;7.98;23.47
21826;BME280;11075;47.944;11.776;2022-12-08T04:44:21;94077.44;;;8.02;23.49
21826;BME280;11075;47.944;11.776;2022-12-08T04:46:48;94067.59;;;7.24;24.37
21826;BME280;11075;47.944;11.776;2022-12-08T04:49:15;94061.13;;;7.25;24.13
21826;BME280;11075;47.944;11.776;2022-12-08T04:51:42;94057.16;;;7.11;24.38
21826;BME280;11075;47.944;11.776;2022-12-08T04:54:08;94060.16;;;7.09;24.36
21826;BME280;11075;47.944;11.776;2022-12-08T04:56:35;94060.66;;;7.23;24.42
21826;BME280;11075;47.944;11.776;2022-12-08T04:59:03;94062.09;;;6.67;25.04
21826;BME280;11075;47.944;11.776;2022-12-08T05:01:30;94050.53;;;6.75;24.84
21826;BME280;11075;47.944;11.776;2022-12-08T05:03:57;94064.00;;;7.78;23.83
21826;BME280;11075;47.944;11.776;2022-12-08T05:06:24;94066.00;;;7.56;23.74
21826;BME280;11075;47.944;11.776;2022-12-08T05:08:51;94068.94;;;7.88;23.42
21826;BME280;11075;47.944;11.776;2022-12-08T05:11:18;94052.91;;;6.26;25.28
21826;BME280;11075;47.944;11.776;2022-12-08T05:13:45;94063.22;;;7.89;23.47
21826;BME280;11075;47.944;11.776;2022-12-08T05:16:14;94057.63;;;7.70;23.84
21826;BME280;11075;47.944;11.776;2022-12-08T05:18:41;94054.50;;;7.80;23.51
21826;BME280;11075;47.944;11.776;2022-12-08T05:21:09;94069.19;;;8.19;23.14
21826;BME280;11075;47.944;11.776;2022-12-08T05:23:36;94056.25;;;7.52;23.88
21826;BME280;11075;47.944;11.776;2022-12-08T05:26:03;94054.06;;;6.46;24.70
21826;BME280;11075;47.944;11.776;2022-12-08T05:28:31;94053.22;;;7.41;23.91
21826;BME280;11075;47.944;11.776;2022-12-08T05:31:10;94060.25;;;7.34;23.81
21826;BME280;11075;47.944;11.776;2022-12-08T05:33:37;94050.53;;;7.08;24.36
21826;BME280;11075;47.944;11.776;2022-12-08T05:36:04;94050.38;;;7.71;23.55
21826;BME280;11075;47.944;11.776;2022-12-08T05:38:32;94042.69;;;6.91;24.45
21826;BME280;11075;47.944;11.776;2022-12-08T05:40:59;94037.78;;;6.93;24.49
21826;BME280;11075;47.944;11.776;2022-12-08T05:43:26;94036.72;;;7.64;23.57
21826;BME280;11075;47.944;11.776;2022-12-08T05:45:53;94047.22;;;7.56;23.48
21826;BME280;11075;47.944;11.776;2022-12-08T05:48:20;94044.44;;;7.53;23.51
21826;BME280;11075;47.944;11.776;2022-12-08T05:50:48;94038.13;;;5.70;25.41
21826;BME280;11075;47.944;11.776;2022-12-08T05:53:17;94042.03;;;6.73;24.38
21826;BME280;11075;47.944;11.776;2022-12-08T05:55:46;94031.97;;;6.91;24.21
21826;BME280;11075;47.944;11.776;2022-12-08T05:58:18;94023.72;;;6.63;24.73
21826;BME280;11075;47.944;11.776;2022-12-08T06:00:47;94030.34;;;5.48;25.47
21826;BME280;11075;47.944;11.776;2022-12-08T06:03:16;94029.06;;;6.42;24.31
21826;BME280;11075;47.944;11.776;2022-12-08T06:05:44;94029.00;;;6.51;24.42
21826;BME280;11075;47.944;11.776;2022-12-08T06:08:12;94032.66;;;6.46;24.21
21826;BME280;11075;47.944;11.776;2022-12-08T06:10:40;94037.16;;;7.08;23.37
21826;BME280;11075;47.944;11.776;2022-12-08T06:13:07;94028.44;;;6.16;24.52
21826;BME280;11075;47.944;11.776;2022-12-08T06:15:37;94041.72;;;6.75;23.62
21826;BME280;11075;47.944;11.776;2022-12-08T06:18:05;94035.78;;;5.98;24.32
21826;BME280;11075;47.944;11.776;2022-12-08T06:20:33;94033.84;;;6.57;24.18
21826;BME280;11075;47.944;11.776;2022-12-08T06:23:01;94040.75;;;6.58;24.02
21826;BME280;11075;47.944;11.776;2022-12-08T06:25:29;94039.44;;;6.64;23.75
21826;BME280;11075;47.944;11.776;2022-12-08T06:27:56;94029.75;;;6.10;24.33
21826;BME280;11075;47.944;11.776;2022-12-08T06:30:22;94034.16;;;6.56;23.53
21826;BME280;11075;47.944;11.776;2022-12-08T06:32:49;94035.69;;;6.36;23.89
21826;BME280;11075;47.944;11.776;2022-12-08T06:35:16;94034.38;;;6.21;24.02
21826;BME280;11075;47.944;11.776;2022-12-08T06:37:43;94032.94;;;6.24;23.86
21826;BME280;11075;47.944;11.776;2022-12-08T06:40:10;94023.53;;;5.12;25.07
21826;BME280;11075;47.944;11.776;2022-12-08T06:42:37;94032.03;;;6.20;23.71
21826;BME280;11075;47.944;11.776;2022-12-08T06:45:11;94042.13;;;6.44;23.88
21826;BME280;11075;47.944;11.776;2022-12-08T06:47:38;94046.72;;;6.14;23.72
21826;BME280;11075;47.944;11.776;2022-12-08T06:50:07;94038.75;;;6.26;23.33
21826;BME280;11075;47.944;11.776;2022-12-08T06:52:36;94027.94;;;5.08;24.97
21826;BME280;11075;47.944;11.776;2022-12-08T06:55:12;94035.75;;;5.30;24.56
21826;BME280;11075;47.944;11.776;2022-12-08T06:57:59;94038.03;;;5.58;24.67
21826;BME280;11075;47.944;11.776;2022-12-08T07:00:26;94044.34;;;5.53;24.00
21826;BME280;11075;47.944;11.776;2022-12-08T07:02:53;94033.63;;;4.98;24.94
21826;BME280;11075;47.944;11.776;2022-12-08T07:05:19;94042.13;;;6.14;23.41
21826;BME280;11075;47.944;11.776;2022-12-08T07:07:46;94041.44;;;5.67;24.17
21826;BME280;11075;47.944;11.776;2022-12-08T07:10:13;94034.75;;;4.80;24.92
21826;BME280;11075;47.944;11.776;2022-12-08T07:12:40;94036.56;;;5.69;24.09
21826;BME280;11075;47.944;11.776;2022-12-08T07:15:07;94031.75;;;4.21;25.35
21826;BME280;11075;47.944;11.776;2022-12-08T07:17:34;94024.28;;;3.74;26.46
21826;BME280;11075;47.944;11.776;2022-12-08T07:20:01;94022.91;;;5.15;24.64
21826;BME280;11075;47.944;11.776;2022-12-08T07:22:29;94045.69;;;5.97;23.08
21826;BME280;11075;47.944;11.776;2022-12-08T07:24:56;94046.97;;;5.62;23.72
21826;BME280;11075;47.944;11.776;2022-12-08T07:27:23;94053.53;;;6.53;22.82
21826;BME280;11075;47.944;11.776;2022-12-08T07:29:49;94064.00;;;6.67;22.69
21826;BME280;11075;47.944;11.776;2022-12-08T07:32:17;94061.50;;;6.82;22.33
21826;BME280;11075;47.944;11.776;2022-12-08T07:34:43;94065.16;;;6.57;22.54
21826;BME280;11075;47.944;11.776;2022-12-08T07:37:12;94048.25;;;4.66;24.85
21826;BME280;11075;47.944;11.776;2022-12-08T07:39:39;94049.84;;;5.86;23.11
21826;BME280;11075;47.944;11.776;2022-12-08T07:42:07;94046.72;;;6.35;23.02
21826;BME280;11075;47.944;11.776;2022-12-08T07:44:36;94060.34;;;6.71;22.26
21826;BME280;11075;47.944;11.776;2022-12-08T07:47:03;94053.34;;;4.02;24.99
21826;BME280;11075;47.944;11.776;2022-12-08T07:49:30;94057.59;;;5.79;23.53
21826;BME280;11075;47.944;11.776;2022-12-08T07:51:57;94062.47;;;6.07;22.47
21826;BME280;11075;47.944;11.776;2022-12-08T07:54:24;94061.19;;;6.13;23.10
21826;BME280;11075;47.944;11.776;2022-12-08T07:56:50;94062.28;;;6.41;22.48
21826;BME280;11075;47.944;11.776;2022-12-08T07:59:18;94055.94;;;4.59;24.74
21826;BME280;11075;47.944;11.776;2022-12-08T08:01:47;94053.09;;;4.47;24.74
21826;BME280;11075;47.944;11.776;2022-12-08T08:04:34;94047.13;;;4.93;24.46
21826;BME280;11075;47.944;11.776;2022-12-08T08:07:02;94060.59;;;6.57;22.54
21826;BME280;11075;47.944;11.776;2022-12-08T08:09:29;94062.66;;;6.02;22.86
21826;BME280;11075;47.944;11.776;2022-12-08T08:11:56;94059.63;;;6.12;23.63
21826;BME280;11075;47.944;11.776;2022-12-08T08:14:42;94079.28;;;10.06;19.91
21826;BME280;11075;47.944;11.776;2022-12-08T08:17:10;94072.75;;;6.55;22.74
21826;BME280;11075;47.944;11.776;2022-12-08T08:19:37;94089.38;;;11.33;18.39
21826;BME280;11075;47.944;11.776;2022-12-08T08:22:04;94084.91;;;8.45;21.12
21826;BME280;11075;47.944;11.776;2022-12-08T08:24:30;94075.19;;;8.93;21.15
21826;BME280;11075;47.944;11.776;2022-12-08T08:26:57;94090.72;;;11.04;18.81
21826;BME280;11075;47.944;11.776;2022-12-08T08:29:24;94098.91;;;10.73;19.64
21826;BME280;11075;47.944;11.776;2022-12-08T08:31:52;94108.13;;;13.16;17.59
21826;BME280;11075;47.944;11.776;2022-12-08T08:34:19;94106.28;;;13.57;17.68
21826;BME280;11075;47.944;11.776;2022-12-08T08:36:45;94096.22;;;10.38;19.77
21826;BME280;11075;47.944;11.776;2022-12-08T08:39:13;94111.88;;;14.63;16.89
21826;BME280;11075;47.944;11.776;2022-12-08T08:41:39;94120.38;;;15.27;16.64
21826;BME280;11075;47.944;11.776;2022-12-08T08:44:07;94125.97;;;15.56;16.40
21826;BME280;11075;47.944;11.776;2022-12-08T08:46:34;94124.50;;;14.93;16.83
21826;BME280;11075;47.944;11.776;2022-12-08T08:49:01;94125.94;;;15.52;15.79
21826;BME280;11075;47.944;11.776;2022-12-08T08:51:28;94112.94;;;13.00;18.43
21826;BME280;11075;47.944;11.776;2022-12-08T08:53:55;94128.44;;;13.66;17.06
21826;BME280;11075;47.944;11.776;2022-12-08T08:56:22;94113.41;;;14.57;17.40
21826;BME280;11075;47.944;11.776;2022-12-08T08:58:51;94118.38;;;15.10;16.91
21826;BME280;11075;47.944;11.776;2022-12-08T09:01:21;94102.47;;;13.99;18.22
21826;BME280;11075;47.944;11.776;2022-12-08T09:03:50;94109.47;;;12.99;19.39
21826;BME280;11075;47.944;11.776;2022-12-08T09:06:18;94105.56;;;14.45;17.97
21826;BME280;11075;47.944;11.776;2022-12-08T09:08:46;94126.91;;;16.70;16.38
21826;BME280;11075;47.944;11.776;2022-12-08T09:11:13;94139.03;;;15.33;16.86
21826;BME280;11075;47.944;11.776;2022-12-08T09:13:40;94139.31;;;16.36;16.32
21826;BME280;11075;47.944;11.776;2022-12-08T09:16:08;94120.38;;;14.14;18.26
21826;BME280;11075;47.944;11.776;2022-12-08T09:18:36;94107.75;;;11.66;20.04
21826;BME280;11075;47.944;11.776;2022-12-08T09:21:06;94102.63;;;13.43;19.00
21826;BME280;11075;47.944;11.776;2022-12-08T09:23:34;94078.56;;;10.40;22.28
21826;BME280;11075;47.944;11.776;2022-12-08T09:26:03;94098.59;;;15.10;17.69
21826;BME280;11075;47.944;11.776;2022-12-08T09:28:31;94095.22;;;13.70;18.80
21826;BME280;11075;47.944;11.776;2022-12-08T09:30:58;94098.63;;;15.17;18.19
21826;BME280;11075;47.944;11.776;2022-12-08T09:33:26;94086.63;;;12.41;20.00
21826;BME280;11075;47.944;11.776;2022-12-08T09:35:53;94078.66;;;11.79;19.51
21826;BME280;11075;47.944;11.776;2022-12-08T09:38:20;94056.19;;;13.37;20.21
21826;BME280;11075;47.944;11.776;2022-12-08T09:40:50;94052.34;;;11.72;21.09
21826;BME280;11075;47.944;11.776;2022-12-08T09:44:02;94057.56;;;13.98;19.70
21826;BME280;11075;47.944;11.776;2022-12-08T09:46:28;94058.91;;;12.74;20.08
21826;BME280;11075;47.944;11.776;2022-12-08T09:48:58;94073.41;;;13.96;18.37
21826;BME280;11075;47.944;11.776;2022-12-08T09:51:31;94067.28;;;15.26;18.07
21826;BME280;11075;47.944;11.776;2022-12-08T09:54:06;94078.28;;;14.82;17.52
21826;BME280;11075;47.944;11.776;2022-12-08T09:56:36;94076.03;;;16.14;16.84
21826;BME280;11075;47.944;11.776;2022-12-08T10:01:50;94100.06;;;18.43;15.41
21826;BME280;11075;47.944;11.776;2022-12-08T10:04:28;94067.22;;;13.21;19.18
21826;BME280;11075;47.944;11.776;2022-12-08T10:13:06;94091.16;;;16.72;15.69
21826;BME280;11075;47.944;11.776;2022-12-08T10:15:57;94084.88;;;17.91;15.19
21826;BME280;11075;47.944;11.776;2022-12-08T10:18:31;94095.00;;;17.90;14.42
21826;BME280;11075;47.944;11.776;2022-12-08T10:21:16;94087.19;;;16.98;15.30
21826;BME280;11075;47.944;11.776;2022-12-08T10:23:49;94099.38;;;15.10;15.52
21826;BME280;11075;47.944;11.776;2022-12-08T10:26:20;94091.94;;;18.81;14.21
21826;BME280;11075;47.944;11.776;2022-12-08T10:28:49;94075.63;;;16.23;16.59
21826;BME280;11075;47.944;11.776;2022-12-08T10:31:22;94087.72;;;17.62;14.75
21826;BME280;11075;47.944;11.776;2022-12-08T10:34:00;94056.00;;;15.14;17.47
21826;BME280;11075;47.944;11.776;2022-12-08T10:36:46;94070.59;;;16.60;15.10
21826;BME280;11075;47.944;11.776;2022-12-08T10:39:31;94085.78;;;18.29;14.71
21826;BME280;11075;47.944;11.776;2022-12-08T10:47:25;94069.88;;;18.17;14.67
21826;BME280;11075;47.944;11.776;2022-12-08T10:50:16;94055.06;;;18.18;14.86
21826;BME280;11075;47.944;11.776;2022-12-08T10:52:59;94069.25;;;17.25;14.47
21826;BME280;11075;47.944;11.776;2022-12-08T10:55:27;94084.69;;;18.64;13.57
21826;BME280;11075;47.944;11.776;2022-12-08T10:57:55;94078.00;;;12.08;15.98
21826;BME280;11075;47.944;11.776;2022-12-08T11:00:26;94058.47;;;15.62;14.63
21826;BME280;11075;47.944;11.776;2022-12-08T11:02:59;94069.81;;;17.72;13.99
21826;BME280;11075;47.944;11.776;2022-12-08T11:05:32;94062.81;;;16.16;15.17
21826;BME280;11075;47.944;11.776;2022-12-08T11:08:00;94064.00;;;14.23;15.03
21826;BME280;11075;47.944;11.776;2022-12-08T11:10:42;94052.22;;;9.83;17.94
21826;BME280;11075;47.944;11.776;2022-12-08T11:13:18;94050.13;;;13.88;15.93
21826;BME280;11075;47.944;11.776;2022-12-08T11:15:47;94043.16;;;11.77;17.02
21826;BME280;11075;47.944;11.776;2022-12-08T11:18:26;94032.09;;;13.25;16.73
21826;BME280;11075;47.944;11.776;2022-12-08T11:20:58;94016.22;;;11.81;18.22
21826;BME280;11075;47.944;11.776;2022-12-08T11:23:26;93998.94;;;10.78;19.43
21826;BME280;11075;47.944;11.776;2022-12-08T11:26:00;93993.53;;;11.17;18.76
21826;BME280;11075;47.944;11.776;2022-12-08T11:28:28;93987.09;;;11.02;19.07
21826;BME280;11075;47.944;11.776;2022-12-08T11:31:03;93951.59;;;10.03;20.59
21826;BME280;11075;47.944;11.776;2022-12-08T11:33:33;93960.88;;;9.55;20.40
21826;BME280;11075;47.944;11.776;2022-12-08T11:36:10;93955.88;;;11.66;18.71
21826;BME280;11075;47.944;11.776;2022-12-08T11:38:43;93947.06;;;9.72;20.24
21826;BME280;11075;47.944;11.776;2022-12-08T11:41:15;93953.03;;;9.81;20.17
21826;BME280;11075;47.944;11.776;2022-12-08T11:46:21;93947.66;;;9.18;20.44
21826;BME280;11075;47.944;11.776;2022-12-08T11:49:01;93956.69;;;7.05;20.68
21826;BME280;11075;47.944;11.776;2022-12-08T11:51:36;93967.06;;;13.11;17.33
21826;BME280;11075;47.944;11.776;2022-12-08T11:54:31;93948.22;;;11.03;18.88
21826;BME280;11075;47.944;11.776;2022-12-08T11:57:01;93945.19;;;7.16;21.28
21826;BME280;11075;47.944;11.776;2022-12-08T11:59:32;93939.31;;;10.60;19.82
21826;BME280;11075;47.944;11.776;2022-12-08T12:02:02;93926.22;;;10.39;20.18
21826;BME280;11075;47.944;11.776;2022-12-08T12:23:35;93901.81;;;8.68;21.92
21826;BME280;11075;47.944;11.776;2022-12-08T12:26:06;93901.16;;;6.69;23.33
21826;BME280;11075;47.944;11.776;2022-12-08T12:28:54;93902.47;;;9.71;20.21
21826;BME280;11075;47.944;11.776;2022-12-08T12:31:39;93904.94;;;12.17;19.91
21826;BME280;11075;47.944;11.776;2022-12-08T12:42:45;93858.28;;;6.23;25.35
21826;BME280;11075;47.944;11.776;2022-12-08T12:50:45;93851.41;;;6.68;24.42
21826;BME280;11075;47.944;11.776;2022-12-08T13:03:41;93838.09;;;7.69;22.98
21826;BME280;11075;47.944;11.776;2022-12-08T13:06:09;93862.38;;;7.60;22.35
21826;BME280;11075;47.944;11.776;2022-12-08T13:08:51;93855.91;;;7.12;22.65
21826;BME280;11075;47.944;11.776;2022-12-08T13:11:23;93848.53;;;7.21;22.60
21826;BME280;11075;47.944;11.776;2022-12-08T13:13:56;93862.72;;;7.34;21.45
21826;BME280;11075;47.944;11.776;2022-12-08T13:16:26;93869.28;;;6.88;20.83
21826;BME280;11075;47.944;11.776;2022-12-08T13:19:03;93863.81;;;7.21;21.59
21826;BME280;11075;47.944;11.776;2022-12-08T13:21:36;93869.53;;;7.44;20.54
21826;BME280;11075;47.944;11.776;2022-12-08T13:29:36;93858.47;;;5.64;22.43
21826;BME280;11075;47.944;11.776;2022-12-08T13:34:56;93874.88;;;6.17;21.78
21826;BME280;11075;47.944;11.776;2022-12-08T13:37:42;93883.97;;;8.32;19.80
21826;BME280;11075;47.944;11.776;2022-12-08T13:40:26;93886.69;;;7.79;20.21
21826;BME280;11075;47.944;11.776;2022-12-08T13:43:19;93880.25;;;7.32;20.84
21826;BME280;11075;47.944;11.776;2022-12-08T13:45:56;93893.97;;;8.19;20.33
21826;BME280;11075;47.944;11.776;2022-12-08T13:48:51;93883.81;;;9.63;19.37
21826;BME280;11075;47.944;11.776;2022-12-08T13:51:42;93865.41;;;8.54;20.31
21826;BME280;11075;47.944;11.776;2022-12-08T13:54:35;93870.41;;;8.84;20.00
21826;BME280;11075;47.944;11.776;2022-12-08T13:57:28;93875.38;;;4.16;22.73
21826;BME280;11075;47.944;11.776;2022-12-08T14:00:11;93872.38;;;2.92;22.95
21826;BME280;11075;47.944;11.776;2022-12-08T14:02:42;93859.25;;;3.95;22.33
21826;BME280;11075;47.944;11.776;2022-12-08T14:05:16;93867.63;;;4.40;22.09
21826;BME280;11075;47.944;11.776;2022-12-08T14:08:07;93862.38;;;3.89;23.31
21826;BME280;11075;47.944;11.776;2022-12-08T14:11:03;93862.06;;;5.68;21.61
21826;BME280;11075;47.944;11.776;2022-12-08T14:13:32;93851.72;;;5.38;22.56
21826;BME280;11075;47.944;11.776;2022-12-08T14:15:59;93849.00;;;4.32;23.40
21826;BME280;11075;47.944;11.776;2022-12-08T14:18:29;93849.09;;;4.99;22.11
21826;BME280;11075;47.944;11.776;2022-12-08T14:21:02;93847.31;;;4.01;24.15
21826;BME280;11075;47.944;11.776;2022-12-08T14:23:47;93846.25;;;5.96;23.02
21826;BME280;11075;47.944;11.776;2022-12-08T14:26:14;93842.88;;;5.87;22.67
21826;BME280;11075;47.944;11.776;2022-12-08T14:28:41;93839.66;;;3.74;24.65
21826;BME280;11075;47.944;11.776;2022-12-08T14:31:11;93842.72;;;7.07;21.98
21826;BME280;11075;47.944;11.776;2022-12-08T14:33:41;93857.91;;;8.04;21.12
21826;BME280;11075;47.944;11.776;2022-12-08T14:36:09;93831.16;;;5.80;23.71
21826;BME280;11075;47.944;11.776;2022-12-08T14:38:40;93823.72;;;6.18;23.99
21826;BME280;11075;47.944;11.776;2022-12-08T14:41:10;93824.16;;;7.63;22.79
21826;BME280;11075;47.944;11.776;2022-12-08T14:43:38;93827.66;;;7.03;23.56
21826;BME280;11075;47.944;11.776;2022-12-08T14:46:20;93824.75;;;7.20;23.30
21826;BME280;11075;47.944;11.776;2022-12-08T14:48:48;93826.84;;;7.63;22.83
21826;BME280;11075;47.944;11.776;2022-12-08T14:59:00;93808.78;;;6.62;24.72
21826;BME280;11075;47.944;11.776;2022-12-08T15:01:29;93813.41;;;7.23;23.75
21826;BME280;11075;47.944;11.776;2022-12-08T15:04:01;93821.53;;;7.79;22.75
21826;BME280;11075;47.944;11.776;2022-12-08T15:06:32;93825.47;;;8.09;22.38
21826;BME280;11075;47.944;11.776;2022-12-08T15:09:14;93822.56;;;7.74;23.02
21826;BME280;11075;47.944;11.776;2022-12-08T15:11:42;93822.03;;;8.09;22.66